createdAt,value
2022-12-25T00:00:34.477Z,100827.09
2022-12-25T00:03:25.285Z,100833.59
2022-12-25T00:05:56.077Z,100845.20
2022-12-25T00:08:26.766Z,100850.05
2022-12-25T00:11:01.206Z,100851.84
2022-12-25T00:13:31.929Z,100854.25
2022-12-25T00:16:06.230Z,100858.71
2022-12-25T00:18:37.033Z,100866.08
2022-12-25T00:21:08.188Z,100867.77
2022-12-25T00:23:38.914Z,100874.48
2022-12-25T00:26:10.513Z,100872.13
2022-12-25T00:28:41.216Z,100872.03
2022-12-25T00:31:12.452Z,100869.05
2022-12-25T00:33:44.013Z,100867.66
2022-12-25T00:36:15.222Z,100879.00
2022-12-25T00:38:46.188Z,100877.97
2022-12-25T00:41:17.913Z,100879.62
2022-12-25T00:43:48.530Z,100879.90
2022-12-25T00:46:19.448Z,100879.11
2022-12-25T00:48:50.323Z,100881.25
2022-12-25T00:51:21.177Z,100881.26
2022-12-25T00:53:51.950Z,100883.19
2022-12-25T00:56:22.685Z,100878.46
2022-12-25T00:58:53.586Z,100878.61
2022-12-25T01:01:24.475Z,100876.06
2022-12-25T01:03:55.360Z,100873.69
2022-12-25T01:06:26.057Z,100878.34
2022-12-25T01:09:14.442Z,100880.59
2022-12-25T01:11:45.528Z,100880.97
2022-12-25T01:14:16.233Z,100877.33
2022-12-25T01:16:47.011Z,100887.86
2022-12-25T01:19:17.664Z,100905.65
2022-12-25T01:21:48.407Z,100903.36
2022-12-25T01:24:19.087Z,100903.29
2022-12-25T01:26:49.809Z,100898.52
2022-12-25T01:29:20.584Z,100897.28
2022-12-25T01:31:51.322Z,100898.21
2022-12-25T01:34:22.050Z,100895.83
2022-12-25T01:36:52.964Z,100887.33
2022-12-25T01:39:23.683Z,100886.80
2022-12-25T01:41:54.355Z,100889.58
2022-12-25T01:44:42.425Z,100890.09
2022-12-25T01:47:13.144Z,100891.02
2022-12-25T01:49:44.183Z,100892.56
2022-12-25T01:52:18.838Z,100887.63
2022-12-25T01:54:55.278Z,100888.47
2022-12-25T01:57:26.823Z,100888.75
2022-12-25T01:59:57.637Z,100890.09
2022-12-25T02:02:28.635Z,100881.52
2022-12-25T02:04:59.971Z,100869.48
2022-12-25T02:07:31.321Z,100867.84
2022-12-25T02:10:02.179Z,100867.40
2022-12-25T02:12:33.623Z,100863.15
2022-12-25T02:15:06.428Z,100865.51
2022-12-25T02:17:39.701Z,100869.11
2022-12-25T02:20:18.303Z,100882.27
2022-12-25T02:22:52.094Z,100890.56
2022-12-25T02:25:27.214Z,100906.45
2022-12-25T02:28:01.774Z,100899.75
2022-12-25T02:30:33.616Z,100902.59
2022-12-25T02:33:18.694Z,100906.66
2022-12-25T02:35:51.622Z,100903.15
2022-12-25T02:38:23.447Z,100898.33
2022-12-25T02:40:55.034Z,100897.58
2022-12-25T02:43:44.205Z,100904.23
2022-12-25T02:46:33.322Z,100907.55
2022-12-25T02:49:22.734Z,100906.69
2022-12-25T02:52:11.936Z,100913.73
2022-12-25T02:55:07.033Z,100920.30
2022-12-25T02:57:56.082Z,100918.67
2022-12-25T03:00:49.646Z,100912.04
2022-12-25T03:03:49.276Z,100918.30
2022-12-25T03:06:45.993Z,100926.31
2022-12-25T03:09:35.016Z,100925.98
2022-12-25T03:12:06.921Z,100929.16
2022-12-25T03:14:55.432Z,100929.63
2022-12-25T03:17:26.364Z,100928.95
2022-12-25T03:20:14.672Z,100937.21
2022-12-25T03:23:02.895Z,100951.92
2022-12-25T03:25:51.297Z,100951.62
2022-12-25T03:28:22.043Z,100953.82
2022-12-25T03:31:13.582Z,100953.85
2022-12-25T03:34:45.958Z,100968.38
2022-12-25T03:37:36.779Z,100969.90
2022-12-25T03:40:27.571Z,100970.45
2022-12-25T03:43:17.966Z,100977.17
2022-12-25T03:46:07.256Z,100990.88
2022-12-25T03:48:55.601Z,100991.49
2022-12-25T03:51:44.769Z,100993.12
2022-12-25T03:54:32.974Z,100991.00
2022-12-25T03:57:21.111Z,100988.05
2022-12-25T04:00:09.299Z,100989.45
2022-12-25T04:02:57.462Z,100984.70
2022-12-25T04:05:45.751Z,100983.73
2022-12-25T04:08:34.244Z,100988.38
2022-12-25T04:11:22.910Z,100993.02
2022-12-25T04:14:11.889Z,100994.47
2022-12-25T04:17:01.138Z,100991.66
2022-12-25T04:19:50.253Z,100996.86
2022-12-25T04:22:39.028Z,100997.52
2022-12-25T04:25:29.819Z,101004.54
2022-12-25T04:28:21.257Z,101012.15
2022-12-25T04:31:10.633Z,101014.83
2022-12-25T04:34:00.005Z,101013.89
2022-12-25T04:36:31.410Z,101008.18
2022-12-25T04:39:02.641Z,101004.83
2022-12-25T04:41:34.019Z,101008.56
2022-12-25T04:44:05.759Z,101009.82
2022-12-25T04:46:37.312Z,101022.32
2022-12-25T04:49:08.561Z,101026.41
2022-12-25T04:51:39.880Z,101027.81
2022-12-25T04:54:11.327Z,101032.08
2022-12-25T04:56:45.746Z,101031.42
2022-12-25T04:59:17.599Z,101031.30
2022-12-25T05:01:48.890Z,101039.77
2022-12-25T05:04:20.245Z,101042.67
2022-12-25T05:06:51.707Z,101041.20
2022-12-25T05:09:23.283Z,101041.45
2022-12-25T05:11:54.987Z,101045.38
2022-12-25T05:14:26.281Z,101043.32
2022-12-25T05:16:57.522Z,101046.48
2022-12-25T05:19:28.902Z,101056.17
2022-12-25T05:22:00.295Z,101064.44
2022-12-25T05:24:31.969Z,101057.85
2022-12-25T05:27:03.091Z,101060.88
2022-12-25T05:29:34.245Z,101066.54
2022-12-25T05:32:05.829Z,101067.52
2022-12-25T05:34:37.284Z,101071.64
2022-12-25T05:37:08.920Z,101081.82
2022-12-25T05:39:40.165Z,101087.84
2022-12-25T05:42:11.546Z,101098.21
2022-12-25T05:44:42.970Z,101104.66
2022-12-25T05:47:14.406Z,101110.29
2022-12-25T05:49:45.747Z,101111.20
2022-12-25T05:52:16.914Z,101114.55
2022-12-25T05:54:48.098Z,101112.23
2022-12-25T05:57:19.449Z,101119.79
2022-12-25T05:59:50.877Z,101121.18
2022-12-25T06:02:22.484Z,101126.98
2022-12-25T06:04:53.971Z,101131.10
2022-12-25T06:07:25.174Z,101134.73
2022-12-25T06:09:56.524Z,101138.97
2022-12-25T06:12:28.020Z,101143.65
2022-12-25T06:14:59.390Z,101146.09
2022-12-25T06:17:30.538Z,101149.11
2022-12-25T06:20:01.792Z,101162.11
2022-12-25T06:22:33.476Z,101162.04
2022-12-25T06:25:05.260Z,101163.36
2022-12-25T06:27:36.669Z,101169.66
2022-12-25T06:30:08.931Z,101168.36
2022-12-25T06:32:39.957Z,101166.77
2022-12-25T06:35:11.220Z,101168.54
2022-12-25T06:37:42.669Z,101174.11
2022-12-25T06:40:14.635Z,101169.10
2022-12-25T06:42:45.916Z,101162.95
2022-12-25T06:45:17.260Z,101172.17
2022-12-25T06:47:48.716Z,101172.95
2022-12-25T06:50:20.169Z,101166.38
2022-12-25T06:52:51.710Z,101173.48
2022-12-25T06:55:22.989Z,101174.20
2022-12-25T06:57:54.091Z,101183.77
2022-12-25T07:00:25.565Z,101198.34
2022-12-25T07:02:57.239Z,101207.19
2022-12-25T07:05:28.847Z,101218.04
2022-12-25T07:08:00.200Z,101223.24
2022-12-25T07:10:31.416Z,101218.74
2022-12-25T07:13:02.618Z,101217.20
2022-12-25T07:15:33.973Z,101216.52
2022-12-25T07:18:05.542Z,101218.14
2022-12-25T07:20:36.954Z,101214.36
2022-12-25T07:23:08.127Z,101221.92
2022-12-25T07:25:39.589Z,101208.22
2022-12-25T07:28:11.096Z,101217.07
2022-12-25T07:30:42.555Z,101219.81
2022-12-25T07:33:13.739Z,101220.03
2022-12-25T07:35:45.070Z,101218.63
2022-12-25T07:38:16.524Z,101220.60
2022-12-25T07:40:48.232Z,101223.49
2022-12-25T07:43:19.622Z,101222.88
2022-12-25T07:45:51.029Z,101224.11
2022-12-25T07:48:22.265Z,101231.80
2022-12-25T07:50:58.274Z,101237.48
2022-12-25T07:53:29.948Z,101239.83
2022-12-25T07:56:02.315Z,101239.41
2022-12-25T07:58:33.456Z,101244.75
2022-12-25T08:01:05.804Z,101251.34
2022-12-25T08:03:37.382Z,101259.01
2022-12-25T08:06:10.529Z,101252.89
2022-12-25T08:08:42.289Z,101258.26
2022-12-25T08:11:13.673Z,101269.35
2022-12-25T08:13:44.822Z,101263.38
2022-12-25T08:16:16.209Z,101275.74
2022-12-25T08:18:47.779Z,101281.11
2022-12-25T08:21:20.045Z,101276.92
2022-12-25T08:23:51.459Z,101272.49
2022-12-25T08:26:23.789Z,101269.64
2022-12-25T08:28:55.218Z,101267.61
2022-12-25T08:31:27.748Z,101273.00
2022-12-25T08:33:59.755Z,101278.34
2022-12-25T08:36:31.211Z,101273.73
2022-12-25T08:39:03.561Z,101276.06
2022-12-25T08:41:36.749Z,101274.48
2022-12-25T08:44:08.209Z,101274.14
2022-12-25T08:46:40.663Z,101278.69
2022-12-25T08:49:12.032Z,101277.54
2022-12-25T08:51:45.170Z,101280.48
2022-12-25T08:54:16.573Z,101286.81
2022-12-25T08:56:48.029Z,101282.02
2022-12-25T08:59:19.468Z,101282.33
2022-12-25T09:01:50.738Z,101283.46
2022-12-25T09:04:22.070Z,101288.51
2022-12-25T09:06:53.519Z,101291.42
2022-12-25T09:09:28.965Z,101295.86
2022-12-25T09:12:00.424Z,101302.23
2022-12-25T09:14:32.020Z,101298.39
2022-12-25T09:17:03.382Z,101298.91
2022-12-25T09:19:34.783Z,101308.54
2022-12-25T09:22:06.231Z,101310.53
2022-12-25T09:24:39.548Z,101308.29
2022-12-25T09:27:10.688Z,101298.23
2022-12-25T09:29:44.542Z,101293.94
2022-12-25T09:32:15.763Z,101297.42
2022-12-25T09:34:47.183Z,101303.42
2022-12-25T09:37:18.607Z,101304.19
2022-12-25T09:39:50.095Z,101303.83
2022-12-25T09:42:21.667Z,101303.41
2022-12-25T09:44:54.645Z,101299.27
2022-12-25T09:47:28.055Z,101297.53
2022-12-25T09:50:00.197Z,101300.83
2022-12-25T09:52:31.912Z,101301.75
2022-12-25T09:55:05.219Z,101292.20
2022-12-25T09:57:36.722Z,101301.46
2022-12-25T10:00:14.015Z,101302.98
2022-12-25T10:02:57.875Z,101308.42
2022-12-25T10:05:35.828Z,101298.90
2022-12-25T10:08:08.856Z,101296.34
2022-12-25T10:10:47.646Z,101295.02
2022-12-25T10:13:27.495Z,101296.58
2022-12-25T10:16:00.906Z,101302.16
2022-12-25T10:18:36.335Z,101296.91
2022-12-25T10:21:12.792Z,101301.36
2022-12-25T10:23:45.900Z,101297.06
2022-12-25T10:26:18.887Z,101298.16
2022-12-25T10:28:51.667Z,101292.46
2022-12-25T10:31:23.876Z,101288.13
2022-12-25T10:33:55.408Z,101286.02
2022-12-25T10:36:27.426Z,101284.98
2022-12-25T10:38:59.021Z,101283.83
2022-12-25T10:41:36.870Z,101285.24
2022-12-25T10:44:15.156Z,101276.81
2022-12-25T10:46:48.983Z,101270.92
2022-12-25T10:49:21.381Z,101271.37
2022-12-25T10:51:53.001Z,101270.13
2022-12-25T10:54:25.371Z,101276.29
2022-12-25T10:56:57.900Z,101280.74
2022-12-25T10:59:29.859Z,101283.35
2022-12-25T11:02:06.988Z,101280.48
2022-12-25T11:04:38.626Z,101284.23
2022-12-25T11:07:14.772Z,101287.19
2022-12-25T11:09:51.797Z,101285.31
2022-12-25T11:12:23.886Z,101291.48
2022-12-25T11:14:58.867Z,101292.39
2022-12-25T11:17:30.276Z,101297.94
2022-12-25T11:20:02.527Z,101300.73
2022-12-25T11:22:38.236Z,101296.02
2022-12-25T11:25:16.623Z,101299.26
2022-12-25T11:27:56.695Z,101295.69
2022-12-25T11:30:28.374Z,101297.73
2022-12-25T11:33:00.296Z,101299.80
2022-12-25T11:35:33.285Z,101304.64
2022-12-25T11:38:05.004Z,101300.92
2022-12-25T11:40:37.266Z,101297.34
2022-12-25T11:43:10.765Z,101299.42
2022-12-25T11:45:43.022Z,101304.73
2022-12-25T11:48:15.772Z,101306.81
2022-12-25T11:50:48.348Z,101305.52
2022-12-25T11:53:21.850Z,101302.46
2022-12-25T11:55:55.670Z,101307.49
2022-12-25T11:58:28.392Z,101304.25
2022-12-25T12:00:59.703Z,101310.92
2022-12-25T12:03:32.450Z,101314.42
2022-12-25T12:06:05.005Z,101310.48
2022-12-25T12:08:36.764Z,101315.11
2022-12-25T12:11:16.941Z,101314.77
2022-12-25T12:13:52.073Z,101314.23
2022-12-25T12:16:23.538Z,101317.04
2022-12-25T12:18:54.974Z,101316.20
2022-12-25T12:21:27.758Z,101311.36
2022-12-25T12:24:02.922Z,101312.95
2022-12-25T12:26:37.028Z,101315.14
2022-12-25T12:29:08.717Z,101320.61
2022-12-25T12:31:41.896Z,101324.80
2022-12-25T12:34:20.068Z,101321.70
2022-12-25T12:36:51.667Z,101323.09
2022-12-25T12:39:25.571Z,101325.23
2022-12-25T12:41:56.762Z,101328.59
2022-12-25T12:44:28.356Z,101329.74
2022-12-25T12:47:00.471Z,101335.96
2022-12-25T12:49:33.779Z,101337.33
2022-12-25T12:52:05.892Z,101336.71
2022-12-25T12:54:37.056Z,101336.85
2022-12-25T12:57:10.192Z,101340.02
2022-12-25T12:59:43.666Z,101343.38
2022-12-25T13:02:31.815Z,101347.59
2022-12-25T13:05:04.455Z,101348.04
2022-12-25T13:07:44.182Z,101355.95
2022-12-25T13:10:20.170Z,101358.52
2022-12-25T13:12:53.917Z,101366.13
2022-12-25T13:15:26.228Z,101362.63
2022-12-25T13:17:57.477Z,101363.64
2022-12-25T13:20:32.232Z,101372.23
2022-12-25T13:23:13.750Z,101378.65
2022-12-25T13:25:45.273Z,101380.65
2022-12-25T13:28:16.956Z,101388.16
2022-12-25T13:30:48.633Z,101387.21
2022-12-25T13:33:20.960Z,101386.80
2022-12-25T13:35:52.416Z,101387.15
2022-12-25T13:38:23.972Z,101390.59
2022-12-25T13:41:09.578Z,101382.84
2022-12-25T13:43:41.115Z,101378.60
2022-12-25T13:46:15.132Z,101384.09
2022-12-25T13:48:46.587Z,101390.91
2022-12-25T13:51:18.140Z,101392.26
2022-12-25T13:53:49.596Z,101396.27
2022-12-25T13:56:20.327Z,101396.79
2022-12-25T13:58:54.579Z,101398.98
2022-12-25T14:01:26.074Z,101404.11
2022-12-25T14:03:57.965Z,101406.36
2022-12-25T14:06:30.156Z,101405.05
2022-12-25T14:09:01.475Z,101417.00
2022-12-25T14:11:32.783Z,101425.65
2022-12-25T14:14:05.477Z,101430.80
2022-12-25T14:16:37.276Z,101437.51
2022-12-25T14:19:22.355Z,101439.73
2022-12-25T14:21:55.075Z,101441.00
2022-12-25T14:24:26.530Z,101445.94
2022-12-25T14:27:02.189Z,101449.64
2022-12-25T14:29:37.179Z,101449.93
2022-12-25T14:32:09.758Z,101452.64
2022-12-25T14:34:41.056Z,101457.96
2022-12-25T14:37:15.333Z,101462.66
2022-12-25T14:39:48.220Z,101463.93
2022-12-25T14:42:21.622Z,101466.94
2022-12-25T14:45:03.459Z,101474.41
2022-12-25T14:47:35.384Z,101477.77
2022-12-25T14:50:15.931Z,101478.09
2022-12-25T14:52:47.387Z,101483.92
2022-12-25T14:55:20.944Z,101483.27
2022-12-25T14:57:53.330Z,101486.46
2022-12-25T15:00:25.610Z,101493.35
2022-12-25T15:02:57.303Z,101498.60
2022-12-25T15:05:33.069Z,101502.52
2022-12-25T15:08:06.509Z,101504.03
2022-12-25T15:13:29.969Z,101510.33
2022-12-25T15:16:02.803Z,101519.84
2022-12-25T15:18:35.976Z,101530.34
2022-12-25T15:21:08.448Z,101532.64
2022-12-25T15:23:39.982Z,101532.56
2022-12-25T15:26:12.470Z,101533.42
2022-12-25T15:28:43.701Z,101537.97
2022-12-25T15:31:19.418Z,101539.58
2022-12-25T15:33:51.065Z,101535.77
2022-12-25T15:36:22.577Z,101535.98
2022-12-25T15:38:54.025Z,101540.60
2022-12-25T15:41:39.860Z,101543.39
2022-12-25T15:44:11.602Z,101548.48
2022-12-25T15:46:43.373Z,101554.45
2022-12-25T15:49:15.412Z,101545.55
2022-12-25T15:51:47.217Z,101536.70
2022-12-25T15:54:18.511Z,101538.30
2022-12-25T15:56:50.502Z,101534.59
2022-12-25T15:59:22.039Z,101537.30
2022-12-25T16:01:54.209Z,101538.08
2022-12-25T16:04:26.224Z,101542.80
2022-12-25T16:06:57.679Z,101546.73
2022-12-25T16:09:29.070Z,101551.77
2022-12-25T16:12:00.464Z,101552.83
2022-12-25T16:14:31.916Z,101552.11
2022-12-25T16:17:03.292Z,101553.86
2022-12-25T16:19:34.565Z,101553.02
2022-12-25T16:22:12.288Z,101555.44
2022-12-25T16:24:43.576Z,101558.50
2022-12-25T16:27:14.822Z,101556.86
2022-12-25T16:29:46.031Z,101554.85
2022-12-25T16:32:17.592Z,101554.35
2022-12-25T16:34:49.762Z,101558.13
2022-12-25T16:37:22.432Z,101560.14
2022-12-25T16:39:54.034Z,101562.64
2022-12-25T16:42:25.269Z,101562.27
2022-12-25T16:44:56.575Z,101563.69
2022-12-25T16:47:28.053Z,101565.44
2022-12-25T16:49:59.685Z,101564.42
2022-12-25T16:52:31.669Z,101571.08
2022-12-25T16:55:03.181Z,101571.11
2022-12-25T16:57:34.707Z,101572.33
2022-12-25T17:00:08.855Z,101572.98
2022-12-25T17:02:41.708Z,101574.52
2022-12-25T17:05:13.669Z,101580.49
2022-12-25T17:07:45.415Z,101583.97
2022-12-25T17:10:17.428Z,101586.32
2022-12-25T17:12:48.807Z,101585.45
2022-12-25T17:15:20.594Z,101588.31
2022-12-25T17:17:52.097Z,101593.48
2022-12-25T17:20:23.482Z,101596.83
2022-12-25T17:22:54.864Z,101596.00
2022-12-25T17:25:26.928Z,101595.44
2022-12-25T17:27:58.479Z,101598.95
2022-12-25T17:30:30.103Z,101604.80
2022-12-25T17:33:01.321Z,101606.41
2022-12-25T17:35:32.588Z,101608.50
2022-12-25T17:38:04.124Z,101606.68
2022-12-25T17:40:35.340Z,101605.31
2022-12-25T17:43:07.146Z,101615.11
2022-12-25T17:45:39.175Z,101623.73
2022-12-25T17:48:10.652Z,101630.94
2022-12-25T17:50:42.212Z,101630.97
2022-12-25T17:53:13.856Z,101628.56
2022-12-25T17:55:45.516Z,101641.30
2022-12-25T17:58:16.758Z,101641.52
2022-12-25T18:00:48.035Z,101651.30
2022-12-25T18:03:19.663Z,101651.63
2022-12-25T18:05:51.486Z,101646.90
2022-12-25T18:08:23.006Z,101646.57
2022-12-25T18:10:54.339Z,101644.99
2022-12-25T18:13:25.608Z,101646.63
2022-12-25T18:15:57.188Z,101648.02
2022-12-25T18:18:28.699Z,101651.48
2022-12-25T18:21:00.247Z,101651.75
2022-12-25T18:23:31.389Z,101648.98
2022-12-25T18:26:03.654Z,101647.17
2022-12-25T18:28:36.358Z,101646.41
2022-12-25T18:31:11.567Z,101641.48
2022-12-25T18:33:43.015Z,101638.64
2022-12-25T18:36:14.755Z,101643.80
2022-12-25T18:38:45.945Z,101645.79
2022-12-25T18:41:17.432Z,101644.71
2022-12-25T18:43:54.011Z,101646.56
2022-12-25T18:46:27.473Z,101648.02
2022-12-25T18:48:59.452Z,101650.61
2022-12-25T18:51:36.632Z,101651.00
2022-12-25T18:54:08.975Z,101657.80
2022-12-25T18:56:40.611Z,101659.86
2022-12-25T18:59:12.126Z,101665.86
2022-12-25T19:01:43.458Z,101663.15
2022-12-25T19:04:16.457Z,101658.90
2022-12-25T19:06:49.471Z,101649.73
2022-12-25T19:09:21.003Z,101640.69
2022-12-25T19:11:53.886Z,101642.36
2022-12-25T19:14:26.071Z,101653.32
2022-12-25T19:16:57.590Z,101656.11
2022-12-25T19:19:29.172Z,101654.79
2022-12-25T19:22:00.632Z,101652.27
2022-12-25T19:24:32.143Z,101655.64
2022-12-25T19:27:03.359Z,101661.91
2022-12-25T19:29:34.884Z,101670.20
2022-12-25T19:32:06.569Z,101676.60
2022-12-25T19:34:38.280Z,101684.04
2022-12-25T19:37:15.559Z,101688.05
2022-12-25T19:39:50.131Z,101688.14
2022-12-25T19:42:22.290Z,101689.17
2022-12-25T19:44:53.545Z,101696.08
2022-12-25T19:47:25.431Z,101702.72
2022-12-25T19:50:02.848Z,101703.36
2022-12-25T19:52:37.672Z,101705.77
2022-12-25T19:55:10.325Z,101704.38
2022-12-25T19:57:46.413Z,101708.81
2022-12-25T20:00:18.815Z,101703.94
2022-12-25T20:02:50.889Z,101705.79
2022-12-25T20:05:23.385Z,101709.05
2022-12-25T20:07:56.608Z,101715.23
2022-12-25T20:10:28.223Z,101712.79
2022-12-25T20:12:59.851Z,101712.21
2022-12-25T20:15:31.667Z,101715.53
2022-12-25T20:18:03.342Z,101718.61
2022-12-25T20:20:34.889Z,101728.73
2022-12-25T20:23:06.781Z,101726.98
2022-12-25T20:25:45.030Z,101725.61
2022-12-25T20:28:16.567Z,101720.75
2022-12-25T20:30:48.207Z,101720.23
2022-12-25T20:33:19.853Z,101725.20
2022-12-25T20:35:55.461Z,101732.98
2022-12-25T20:38:28.865Z,101736.34
2022-12-25T20:41:26.248Z,101733.08
2022-12-25T20:43:55.990Z,101735.23
2022-12-25T20:46:27.774Z,101754.68
2022-12-25T20:49:02.855Z,101763.48
2022-12-25T20:51:35.930Z,101766.29
2022-12-25T20:54:09.588Z,101766.98
2022-12-25T20:56:41.771Z,101762.30
2022-12-25T20:59:14.925Z,101759.88
2022-12-25T21:01:46.804Z,101757.15
2022-12-25T21:04:18.592Z,101755.08
2022-12-25T21:06:50.379Z,101762.98
2022-12-25T21:09:21.693Z,101765.38
2022-12-25T21:11:53.253Z,101760.30
2022-12-25T21:14:26.621Z,101753.50
2022-12-25T21:16:58.392Z,101743.58
2022-12-25T21:19:30.089Z,101746.11
2022-12-25T21:22:01.701Z,101754.16
2022-12-25T21:24:32.982Z,101758.21
2022-12-25T21:27:05.012Z,101759.95
2022-12-25T21:29:36.586Z,101754.23
2022-12-25T21:32:25.984Z,101753.98
2022-12-25T21:34:57.234Z,101747.05
2022-12-25T21:37:29.974Z,101751.87
2022-12-25T21:40:01.565Z,101758.13
2022-12-25T21:42:33.153Z,101758.45
2022-12-25T21:45:06.149Z,101753.48
2022-12-25T21:47:59.969Z,101747.98
2022-12-25T21:50:47.000Z,101747.16
2022-12-25T21:53:18.842Z,101750.77
2022-12-25T21:56:00.748Z,101751.45
2022-12-25T21:58:32.523Z,101745.21
2022-12-25T22:01:04.895Z,101737.45
2022-12-25T22:03:36.418Z,101738.15
2022-12-25T22:06:25.855Z,101742.09
2022-12-25T22:08:57.318Z,101754.52
2022-12-25T22:11:47.049Z,101759.88
2022-12-25T22:14:51.558Z,101761.82
2022-12-25T22:17:43.316Z,101756.00
2022-12-25T22:20:15.687Z,101759.86
2022-12-25T22:22:47.167Z,101769.14
2022-12-25T22:25:19.860Z,101770.16
2022-12-25T22:27:53.605Z,101769.73
2022-12-25T22:30:29.685Z,101771.87
2022-12-25T22:33:03.175Z,101773.65
2022-12-25T22:35:34.699Z,101776.45
2022-12-25T22:38:06.397Z,101782.30
2022-12-25T22:40:38.919Z,101783.52
2022-12-25T22:43:10.453Z,101783.09
2022-12-25T22:45:41.917Z,101790.22
2022-12-25T22:48:13.805Z,101786.98
2022-12-25T22:50:45.480Z,101780.59
2022-12-25T22:53:17.008Z,101787.23
2022-12-25T22:55:49.456Z,101798.98
2022-12-25T22:58:21.376Z,101801.53
2022-12-25T23:00:53.117Z,101802.74
2022-12-25T23:03:24.616Z,101804.27
2022-12-25T23:06:00.179Z,101806.23
2022-12-25T23:08:31.428Z,101807.23
2022-12-25T23:11:07.560Z,101810.63
2022-12-25T23:13:57.285Z,101815.33
2022-12-25T23:16:33.238Z,101821.11
2022-12-25T23:19:22.551Z,101819.44
2022-12-25T23:22:11.294Z,101813.48
2022-12-25T23:25:05.600Z,101821.41
2022-12-25T23:27:38.480Z,101829.35
2022-12-25T23:30:11.314Z,101830.29
2022-12-25T23:32:42.911Z,101828.91
2022-12-25T23:35:14.977Z,101828.55
2022-12-25T23:37:53.384Z,101833.70
2022-12-25T23:40:25.525Z,101841.55
2022-12-25T23:42:59.565Z,101846.70
2022-12-25T23:45:32.863Z,101842.84
2022-12-25T23:48:05.616Z,101838.33
2022-12-25T23:50:40.505Z,101841.30
2022-12-25T23:53:15.643Z,101845.97
2022-12-25T23:55:53.298Z,101851.61
2022-12-25T23:58:27.280Z,101858.74
